Terminal Aerodrome Forecast
Issued by NWS

Home | Current Version | Previous Version | Graphics & Text | Print | Product List | Glossary On
Versions: 1 2 3 4 5 6 7 8 9 10 11 12 13 14 15
000
FTUS43 KGRB 231700
TAFMTW
TAF
KMTW 231732Z 2318/2418 04010G17KT P6SM SCT040
      TEMPO 2320/2322 BKN040
     FM232300 04008KT P6SM SCT050
     FM240600 VRB03KT P6SM SKC
      TEMPO 2408/2411 2SM BR
     FM241300 19003KT P6SM SKC=

USA.gov is the U.S. government's official web portal to all federal, state and local government web resources and services.